Truman, Minnesota
Current Conditions -  °F | °C
As of 4:55 PM on Wednesday 22 Oct 2014 (Local Time) from KJYG Reporting Station
Scattered Clouds Scattered Clouds  
Wind Chill: 64°   Ceiling: Unl
Heat Index: 64°   Visibility: 10mi
Dew Point: 45°   Wind: 20mph
Humidity: 49%   Direction: 140°SE
Pressure: 30.01"   Gusts: 29mph
Location:  43.83°N, 94.44°W
Report Text: KJYG 222155Z AUTO 14017G25KT 10SM SCT070 18/07 A3001 RMK AO2
Loading
Personal Weather Stations






























Interactive Weather Map
Tropical Storm Tracking
New forecast layout! Learn more

10-Day Weather Forecast

Advertisements
Track Severe Weather on mobile